sensor_id;sensor_type;location;lat;lon;timestamp;P1;durP1;ratioP1;P2;durP2;ratioP2
38911;SDS011;28444;48.056;14.408;2022-08-19T00:01:49;5.38;;;3.38;;
38911;SDS011;28444;48.056;14.408;2022-08-19T00:04:20;10.20;;;3.38;;
38911;SDS011;28444;48.056;14.408;2022-08-19T00:06:49;12.63;;;3.05;;
38911;SDS011;28444;48.056;14.408;2022-08-19T00:09:17;12.82;;;3.88;;
38911;SDS011;28444;48.056;14.408;2022-08-19T00:11:46;13.48;;;3.45;;
38911;SDS011;28444;48.056;14.408;2022-08-19T00:14:14;11.30;;;3.20;;
38911;SDS011;28444;48.056;14.408;2022-08-19T00:16:43;12.80;;;3.58;;
38911;SDS011;28444;48.056;14.408;2022-08-19T00:19:11;10.45;;;3.97;;
38911;SDS011;28444;48.056;14.408;2022-08-19T00:21:39;7.00;;;3.22;;
38911;SDS011;28444;48.056;14.408;2022-08-19T00:24:07;7.60;;;2.90;;
38911;SDS011;28444;48.056;14.408;2022-08-19T00:26:35;12.68;;;3.78;;
38911;SDS011;28444;48.056;14.408;2022-08-19T00:29:03;14.88;;;4.03;;
38911;SDS011;28444;48.056;14.408;2022-08-19T00:31:31;7.97;;;4.57;;
38911;SDS011;28444;48.056;14.408;2022-08-19T00:33:58;11.95;;;5.05;;
38911;SDS011;28444;48.056;14.408;2022-08-19T00:36:25;9.25;;;4.68;;
38911;SDS011;28444;48.056;14.408;2022-08-19T00:38:52;9.90;;;3.90;;
38911;SDS011;28444;48.056;14.408;2022-08-19T00:41:20;7.10;;;3.95;;
38911;SDS011;28444;48.056;14.408;2022-08-19T00:44:09;10.15;;;3.85;;
38911;SDS011;28444;48.056;14.408;2022-08-19T00:46:42;7.03;;;4.20;;
38911;SDS011;28444;48.056;14.408;2022-08-19T00:49:31;11.15;;;3.42;;
38911;SDS011;28444;48.056;14.408;2022-08-19T00:52:04;9.70;;;3.58;;
38911;SDS011;28444;48.056;14.408;2022-08-19T00:57:04;10.00;;;3.40;;
38911;SDS011;28444;48.056;14.408;2022-08-19T00:59:35;9.02;;;3.53;;
38911;SDS011;28444;48.056;14.408;2022-08-19T01:02:24;15.65;;;4.72;;
38911;SDS011;28444;48.056;14.408;2022-08-19T01:04:53;6.22;;;3.58;;
38911;SDS011;28444;48.056;14.408;2022-08-19T01:07:21;10.07;;;4.00;;
38911;SDS011;28444;48.056;14.408;2022-08-19T01:09:49;10.13;;;4.38;;
38911;SDS011;28444;48.056;14.408;2022-08-19T01:12:15;14.52;;;4.75;;
38911;SDS011;28444;48.056;14.408;2022-08-19T01:14:43;7.55;;;3.75;;
38911;SDS011;28444;48.056;14.408;2022-08-19T01:17:11;15.25;;;4.70;;
38911;SDS011;28444;48.056;14.408;2022-08-19T01:19:41;6.80;;;4.40;;
38911;SDS011;28444;48.056;14.408;2022-08-19T01:24:57;5.60;;;4.35;;
38911;SDS011;28444;48.056;14.408;2022-08-19T01:27:24;7.93;;;5.00;;
38911;SDS011;28444;48.056;14.408;2022-08-19T01:29:54;8.93;;;4.53;;
38911;SDS011;28444;48.056;14.408;2022-08-19T01:32:22;11.30;;;6.50;;
38911;SDS011;28444;48.056;14.408;2022-08-19T01:34:59;14.57;;;6.38;;
38911;SDS011;28444;48.056;14.408;2022-08-19T01:37:28;13.50;;;5.68;;
38911;SDS011;28444;48.056;14.408;2022-08-19T01:39:56;16.52;;;6.10;;
38911;SDS011;28444;48.056;14.408;2022-08-19T01:42:23;14.55;;;6.07;;
38911;SDS011;28444;48.056;14.408;2022-08-19T01:44:55;9.38;;;5.22;;
38911;SDS011;28444;48.056;14.408;2022-08-19T01:47:22;10.68;;;5.53;;
38911;SDS011;28444;48.056;14.408;2022-08-19T01:49:49;15.90;;;6.05;;
38911;SDS011;28444;48.056;14.408;2022-08-19T01:52:16;8.50;;;4.88;;
38911;SDS011;28444;48.056;14.408;2022-08-19T01:54:42;11.35;;;6.28;;
38911;SDS011;28444;48.056;14.408;2022-08-19T01:57:10;18.63;;;6.32;;
38911;SDS011;28444;48.056;14.408;2022-08-19T01:59:39;16.65;;;7.20;;
38911;SDS011;28444;48.056;14.408;2022-08-19T02:02:07;10.40;;;6.85;;
38911;SDS011;28444;48.056;14.408;2022-08-19T02:04:35;15.15;;;8.27;;
38911;SDS011;28444;48.056;14.408;2022-08-19T02:07:04;14.70;;;6.80;;
38911;SDS011;28444;48.056;14.408;2022-08-19T02:09:32;13.80;;;7.15;;
38911;SDS011;28444;48.056;14.408;2022-08-19T02:11:58;9.98;;;6.22;;
38911;SDS011;28444;48.056;14.408;2022-08-19T02:14:26;13.45;;;5.80;;
38911;SDS011;28444;48.056;14.408;2022-08-19T02:16:53;12.32;;;6.03;;
38911;SDS011;28444;48.056;14.408;2022-08-19T02:19:19;9.15;;;5.13;;
38911;SDS011;28444;48.056;14.408;2022-08-19T02:21:46;13.50;;;5.30;;
38911;SDS011;28444;48.056;14.408;2022-08-19T02:24:13;11.68;;;5.47;;
38911;SDS011;28444;48.056;14.408;2022-08-19T02:26:39;7.40;;;5.30;;
38911;SDS011;28444;48.056;14.408;2022-08-19T02:29:06;10.90;;;4.95;;
38911;SDS011;28444;48.056;14.408;2022-08-19T02:31:33;11.27;;;4.93;;
38911;SDS011;28444;48.056;14.408;2022-08-19T02:34:00;14.93;;;5.22;;
38911;SDS011;28444;48.056;14.408;2022-08-19T02:36:27;7.22;;;5.10;;
38911;SDS011;28444;48.056;14.408;2022-08-19T02:38:56;19.42;;;5.05;;
38911;SDS011;28444;48.056;14.408;2022-08-19T02:41:27;12.00;;;5.88;;
38911;SDS011;28444;48.056;14.408;2022-08-19T02:43:55;15.18;;;6.00;;
38911;SDS011;28444;48.056;14.408;2022-08-19T02:46:45;10.38;;;5.80;;
38911;SDS011;28444;48.056;14.408;2022-08-19T02:49:13;13.77;;;4.82;;
38911;SDS011;28444;48.056;14.408;2022-08-19T02:51:43;13.40;;;5.55;;
38911;SDS011;28444;48.056;14.408;2022-08-19T02:54:11;11.05;;;5.70;;
38911;SDS011;28444;48.056;14.408;2022-08-19T02:56:39;9.40;;;5.75;;
38911;SDS011;28444;48.056;14.408;2022-08-19T02:59:08;10.82;;;5.57;;
38911;SDS011;28444;48.056;14.408;2022-08-19T03:01:37;16.10;;;6.35;;
38911;SDS011;28444;48.056;14.408;2022-08-19T03:04:06;20.48;;;7.30;;
38911;SDS011;28444;48.056;14.408;2022-08-19T03:06:38;11.38;;;6.00;;
38911;SDS011;28444;48.056;14.408;2022-08-19T03:09:06;23.88;;;6.80;;
38911;SDS011;28444;48.056;14.408;2022-08-19T03:11:33;13.48;;;6.43;;
38911;SDS011;28444;48.056;14.408;2022-08-19T03:14:00;11.63;;;6.47;;
38911;SDS011;28444;48.056;14.408;2022-08-19T03:16:29;8.98;;;6.50;;
38911;SDS011;28444;48.056;14.408;2022-08-19T03:18:59;8.75;;;6.53;;
38911;SDS011;28444;48.056;14.408;2022-08-19T03:21:29;12.27;;;6.85;;
38911;SDS011;28444;48.056;14.408;2022-08-19T03:23:58;11.68;;;6.25;;
38911;SDS011;28444;48.056;14.408;2022-08-19T03:26:27;15.90;;;7.10;;
38911;SDS011;28444;48.056;14.408;2022-08-19T03:28:54;27.55;;;6.90;;
38911;SDS011;28444;48.056;14.408;2022-08-19T03:31:24;15.52;;;6.05;;
38911;SDS011;28444;48.056;14.408;2022-08-19T03:34:13;7.82;;;5.60;;
38911;SDS011;28444;48.056;14.408;2022-08-19T03:36:44;15.10;;;7.00;;
38911;SDS011;28444;48.056;14.408;2022-08-19T03:39:13;12.18;;;6.30;;
38911;SDS011;28444;48.056;14.408;2022-08-19T03:41:42;10.32;;;5.47;;
38911;SDS011;28444;48.056;14.408;2022-08-19T03:46:44;12.48;;;5.53;;
38911;SDS011;28444;48.056;14.408;2022-08-19T03:49:11;9.05;;;5.55;;
38911;SDS011;28444;48.056;14.408;2022-08-19T03:51:41;12.90;;;6.28;;
38911;SDS011;28444;48.056;14.408;2022-08-19T03:54:09;16.25;;;6.78;;
38911;SDS011;28444;48.056;14.408;2022-08-19T03:56:39;16.15;;;7.07;;
38911;SDS011;28444;48.056;14.408;2022-08-19T03:59:08;10.18;;;6.35;;
38911;SDS011;28444;48.056;14.408;2022-08-19T04:01:37;15.63;;;6.20;;
38911;SDS011;28444;48.056;14.408;2022-08-19T04:04:04;15.30;;;6.72;;
38911;SDS011;28444;48.056;14.408;2022-08-19T04:06:33;9.50;;;6.13;;
38911;SDS011;28444;48.056;14.408;2022-08-19T04:09:06;15.00;;;7.10;;
38911;SDS011;28444;48.056;14.408;2022-08-19T04:11:39;13.10;;;6.57;;
38911;SDS011;28444;48.056;14.408;2022-08-19T04:14:15;12.80;;;6.82;;
38911;SDS011;28444;48.056;14.408;2022-08-19T04:16:44;13.50;;;6.82;;
38911;SDS011;28444;48.056;14.408;2022-08-19T04:19:11;15.48;;;7.03;;
38911;SDS011;28444;48.056;14.408;2022-08-19T04:21:40;12.27;;;6.80;;
38911;SDS011;28444;48.056;14.408;2022-08-19T04:24:11;13.07;;;8.20;;
38911;SDS011;28444;48.056;14.408;2022-08-19T04:26:38;11.43;;;7.25;;
38911;SDS011;28444;48.056;14.408;2022-08-19T04:29:07;13.35;;;7.95;;
38911;SDS011;28444;48.056;14.408;2022-08-19T04:31:38;22.67;;;9.15;;
38911;SDS011;28444;48.056;14.408;2022-08-19T04:34:07;18.63;;;8.38;;
38911;SDS011;28444;48.056;14.408;2022-08-19T04:36:37;14.98;;;8.80;;
38911;SDS011;28444;48.056;14.408;2022-08-19T04:39:10;15.20;;;9.30;;
38911;SDS011;28444;48.056;14.408;2022-08-19T04:41:40;12.27;;;8.38;;
38911;SDS011;28444;48.056;14.408;2022-08-19T04:44:25;15.82;;;10.68;;
38911;SDS011;28444;48.056;14.408;2022-08-19T04:46:52;15.10;;;9.82;;
38911;SDS011;28444;48.056;14.408;2022-08-19T04:49:20;16.73;;;10.30;;
38911;SDS011;28444;48.056;14.408;2022-08-19T04:51:48;14.48;;;10.02;;
38911;SDS011;28444;48.056;14.408;2022-08-19T04:54:18;18.77;;;9.75;;
38911;SDS011;28444;48.056;14.408;2022-08-19T04:57:04;12.35;;;9.00;;
38911;SDS011;28444;48.056;14.408;2022-08-19T04:59:34;21.88;;;10.38;;
38911;SDS011;28444;48.056;14.408;2022-08-19T05:02:00;18.45;;;10.30;;
38911;SDS011;28444;48.056;14.408;2022-08-19T05:04:27;17.85;;;11.35;;
38911;SDS011;28444;48.056;14.408;2022-08-19T05:06:58;14.77;;;10.55;;
38911;SDS011;28444;48.056;14.408;2022-08-19T05:09:27;16.70;;;10.68;;
38911;SDS011;28444;48.056;14.408;2022-08-19T05:12:15;18.83;;;11.18;;
38911;SDS011;28444;48.056;14.408;2022-08-19T05:14:43;15.40;;;11.77;;
38911;SDS011;28444;48.056;14.408;2022-08-19T05:17:12;18.65;;;11.70;;
38911;SDS011;28444;48.056;14.408;2022-08-19T05:20:00;24.20;;;13.32;;
38911;SDS011;28444;48.056;14.408;2022-08-19T05:22:46;15.02;;;11.48;;
38911;SDS011;28444;48.056;14.408;2022-08-19T05:25:15;18.27;;;12.30;;
38911;SDS011;28444;48.056;14.408;2022-08-19T05:27:45;15.50;;;12.00;;
38911;SDS011;28444;48.056;14.408;2022-08-19T05:30:13;18.48;;;13.85;;
38911;SDS011;28444;48.056;14.408;2022-08-19T05:32:40;18.88;;;12.50;;
38911;SDS011;28444;48.056;14.408;2022-08-19T05:35:07;18.27;;;12.55;;
38911;SDS011;28444;48.056;14.408;2022-08-19T05:37:35;16.45;;;12.73;;
38911;SDS011;28444;48.056;14.408;2022-08-19T05:40:02;23.58;;;12.65;;
38911;SDS011;28444;48.056;14.408;2022-08-19T05:42:30;19.63;;;13.43;;
38911;SDS011;28444;48.056;14.408;2022-08-19T05:44:58;20.58;;;13.60;;
38911;SDS011;28444;48.056;14.408;2022-08-19T05:47:24;16.17;;;12.30;;
38911;SDS011;28444;48.056;14.408;2022-08-19T05:49:52;17.42;;;13.75;;
38911;SDS011;28444;48.056;14.408;2022-08-19T05:52:19;22.95;;;13.63;;
38911;SDS011;28444;48.056;14.408;2022-08-19T05:54:51;21.10;;;13.02;;
38911;SDS011;28444;48.056;14.408;2022-08-19T05:57:18;18.75;;;12.57;;
38911;SDS011;28444;48.056;14.408;2022-08-19T05:59:45;18.67;;;13.82;;
38911;SDS011;28444;48.056;14.408;2022-08-19T06:02:18;17.83;;;12.93;;
38911;SDS011;28444;48.056;14.408;2022-08-19T06:04:45;18.52;;;12.48;;
38911;SDS011;28444;48.056;14.408;2022-08-19T06:07:12;23.55;;;14.93;;
38911;SDS011;28444;48.056;14.408;2022-08-19T06:09:39;24.77;;;12.98;;
38911;SDS011;28444;48.056;14.408;2022-08-19T06:12:19;18.30;;;12.90;;
38911;SDS011;28444;48.056;14.408;2022-08-19T06:14:46;20.45;;;14.25;;
38911;SDS011;28444;48.056;14.408;2022-08-19T06:17:26;19.38;;;13.10;;
38911;SDS011;28444;48.056;14.408;2022-08-19T06:19:53;23.23;;;14.40;;
38911;SDS011;28444;48.056;14.408;2022-08-19T06:22:19;23.63;;;13.85;;
38911;SDS011;28444;48.056;14.408;2022-08-19T06:24:46;25.52;;;14.07;;
38911;SDS011;28444;48.056;14.408;2022-08-19T06:27:13;17.02;;;13.45;;
38911;SDS011;28444;48.056;14.408;2022-08-19T06:29:40;21.75;;;14.23;;
38911;SDS011;28444;48.056;14.408;2022-08-19T06:32:08;17.92;;;14.35;;
38911;SDS011;28444;48.056;14.408;2022-08-19T06:34:35;18.42;;;14.52;;
38911;SDS011;28444;48.056;14.408;2022-08-19T06:37:01;22.98;;;15.43;;
38911;SDS011;28444;48.056;14.408;2022-08-19T06:39:34;20.75;;;14.43;;
38911;SDS011;28444;48.056;14.408;2022-08-19T06:42:03;20.02;;;15.82;;
38911;SDS011;28444;48.056;14.408;2022-08-19T06:44:36;20.08;;;15.20;;
38911;SDS011;28444;48.056;14.408;2022-08-19T06:47:09;20.67;;;15.50;;
38911;SDS011;28444;48.056;14.408;2022-08-19T06:49:48;23.08;;;15.30;;
38911;SDS011;28444;48.056;14.408;2022-08-19T06:52:15;17.38;;;13.73;;
38911;SDS011;28444;48.056;14.408;2022-08-19T06:54:42;20.10;;;14.48;;
38911;SDS011;28444;48.056;14.408;2022-08-19T06:57:22;22.83;;;14.27;;
38911;SDS011;28444;48.056;14.408;2022-08-19T06:59:50;22.40;;;15.57;;
38911;SDS011;28444;48.056;14.408;2022-08-19T07:02:17;20.90;;;15.13;;
38911;SDS011;28444;48.056;14.408;2022-08-19T07:04:44;16.80;;;14.15;;
38911;SDS011;28444;48.056;14.408;2022-08-19T07:07:13;16.58;;;13.98;;
38911;SDS011;28444;48.056;14.408;2022-08-19T07:09:47;17.08;;;14.32;;
38911;SDS011;28444;48.056;14.408;2022-08-19T07:12:22;18.50;;;13.98;;
38911;SDS011;28444;48.056;14.408;2022-08-19T07:14:49;19.95;;;16.05;;
38911;SDS011;28444;48.056;14.408;2022-08-19T07:17:15;21.73;;;15.75;;
38911;SDS011;28444;48.056;14.408;2022-08-19T07:19:42;18.90;;;14.80;;
38911;SDS011;28444;48.056;14.408;2022-08-19T07:22:09;20.85;;;16.65;;
38911;SDS011;28444;48.056;14.408;2022-08-19T07:24:38;21.40;;;15.32;;
38911;SDS011;28444;48.056;14.408;2022-08-19T07:27:16;17.00;;;14.30;;
38911;SDS011;28444;48.056;14.408;2022-08-19T07:29:49;23.67;;;15.45;;
38911;SDS011;28444;48.056;14.408;2022-08-19T07:32:22;19.48;;;15.15;;
38911;SDS011;28444;48.056;14.408;2022-08-19T07:34:54;20.10;;;16.00;;
38911;SDS011;28444;48.056;14.408;2022-08-19T07:37:22;21.50;;;15.95;;
38911;SDS011;28444;48.056;14.408;2022-08-19T07:39:57;21.20;;;15.45;;
38911;SDS011;28444;48.056;14.408;2022-08-19T07:42:24;22.67;;;15.93;;
38911;SDS011;28444;48.056;14.408;2022-08-19T07:44:51;19.08;;;15.80;;
38911;SDS011;28444;48.056;14.408;2022-08-19T07:47:18;20.92;;;15.57;;
38911;SDS011;28444;48.056;14.408;2022-08-19T07:50:07;23.60;;;15.35;;
38911;SDS011;28444;48.056;14.408;2022-08-19T07:52:36;20.40;;;14.35;;
38911;SDS011;28444;48.056;14.408;2022-08-19T07:55:06;20.98;;;15.55;;
38911;SDS011;28444;48.056;14.408;2022-08-19T07:57:55;21.35;;;15.30;;
38911;SDS011;28444;48.056;14.408;2022-08-19T08:00:21;20.50;;;16.33;;
38911;SDS011;28444;48.056;14.408;2022-08-19T08:02:49;21.58;;;16.63;;
38911;SDS011;28444;48.056;14.408;2022-08-19T08:05:20;19.10;;;15.82;;
38911;SDS011;28444;48.056;14.408;2022-08-19T08:08:09;20.73;;;15.50;;
38911;SDS011;28444;48.056;14.408;2022-08-19T08:10:55;22.73;;;16.33;;
38911;SDS011;28444;48.056;14.408;2022-08-19T08:13:23;20.98;;;16.52;;
38911;SDS011;28444;48.056;14.408;2022-08-19T08:15:50;18.92;;;16.17;;
38911;SDS011;28444;48.056;14.408;2022-08-19T08:18:18;23.50;;;16.17;;
38911;SDS011;28444;48.056;14.408;2022-08-19T08:20:47;32.72;;;17.20;;
38911;SDS011;28444;48.056;14.408;2022-08-19T08:23:13;25.73;;;17.42;;
38911;SDS011;28444;48.056;14.408;2022-08-19T08:25:52;23.83;;;17.50;;
38911;SDS011;28444;48.056;14.408;2022-08-19T08:28:21;22.17;;;16.13;;
38911;SDS011;28444;48.056;14.408;2022-08-19T08:30:49;20.17;;;16.33;;
38911;SDS011;28444;48.056;14.408;2022-08-19T08:33:18;21.38;;;16.80;;
38911;SDS011;28444;48.056;14.408;2022-08-19T08:35:59;22.55;;;17.38;;
38911;SDS011;28444;48.056;14.408;2022-08-19T08:38:29;24.30;;;18.35;;
38911;SDS011;28444;48.056;14.408;2022-08-19T08:41:16;21.58;;;17.08;;
38911;SDS011;28444;48.056;14.408;2022-08-19T08:43:49;23.85;;;16.95;;
38911;SDS011;28444;48.056;14.408;2022-08-19T08:49:06;20.35;;;16.95;;
38911;SDS011;28444;48.056;14.408;2022-08-19T08:51:42;19.92;;;16.30;;
38911;SDS011;28444;48.056;14.408;2022-08-19T08:54:25;21.95;;;16.10;;
38911;SDS011;28444;48.056;14.408;2022-08-19T08:57:04;21.38;;;16.35;;
38911;SDS011;28444;48.056;14.408;2022-08-19T08:59:39;21.50;;;16.95;;
38911;SDS011;28444;48.056;14.408;2022-08-19T09:02:07;23.20;;;15.73;;
38911;SDS011;28444;48.056;14.408;2022-08-19T09:04:35;19.33;;;15.85;;
38911;SDS011;28444;48.056;14.408;2022-08-19T09:07:18;21.83;;;15.73;;
38911;SDS011;28444;48.056;14.408;2022-08-19T09:10:19;21.52;;;15.32;;
38911;SDS011;28444;48.056;14.408;2022-08-19T09:13:11;21.80;;;16.92;;
38911;SDS011;28444;48.056;14.408;2022-08-19T09:16:06;24.85;;;16.35;;
38911;SDS011;28444;48.056;14.408;2022-08-19T09:18:43;23.20;;;18.00;;
38911;SDS011;28444;48.056;14.408;2022-08-19T09:21:14;22.75;;;17.83;;
38911;SDS011;28444;48.056;14.408;2022-08-19T09:23:42;20.10;;;16.13;;
38911;SDS011;28444;48.056;14.408;2022-08-19T09:26:10;21.65;;;15.70;;
38911;SDS011;28444;48.056;14.408;2022-08-19T09:28:42;25.08;;;16.98;;
38911;SDS011;28444;48.056;14.408;2022-08-19T09:33:42;20.50;;;15.10;;
38911;SDS011;28444;48.056;14.408;2022-08-19T09:36:13;18.17;;;14.90;;
38911;SDS011;28444;48.056;14.408;2022-08-19T09:39:00;18.33;;;14.90;;
38911;SDS011;28444;48.056;14.408;2022-08-19T09:41:27;20.17;;;15.23;;
38911;SDS011;28444;48.056;14.408;2022-08-19T09:43:55;18.73;;;15.30;;
38911;SDS011;28444;48.056;14.408;2022-08-19T09:46:25;20.38;;;14.68;;
38911;SDS011;28444;48.056;14.408;2022-08-19T09:48:56;17.70;;;14.07;;
38911;SDS011;28444;48.056;14.408;2022-08-19T09:51:32;18.85;;;13.82;;
38911;SDS011;28444;48.056;14.408;2022-08-19T09:54:03;16.65;;;13.57;;
38911;SDS011;28444;48.056;14.408;2022-08-19T09:56:30;16.90;;;13.25;;
38911;SDS011;28444;48.056;14.408;2022-08-19T09:58:59;11.88;;;10.68;;
38911;SDS011;28444;48.056;14.408;2022-08-19T10:01:28;12.32;;;10.60;;
38911;SDS011;28444;48.056;14.408;2022-08-19T10:03:57;12.82;;;11.52;;
38911;SDS011;28444;48.056;14.408;2022-08-19T10:06:26;16.45;;;12.98;;
38911;SDS011;28444;48.056;14.408;2022-08-19T10:09:12;18.40;;;13.43;;
38911;SDS011;28444;48.056;14.408;2022-08-19T10:11:40;15.68;;;12.63;;
38911;SDS011;28444;48.056;14.408;2022-08-19T10:14:19;15.55;;;12.02;;
38911;SDS011;28444;48.056;14.408;2022-08-19T10:16:48;17.10;;;12.05;;
38911;SDS011;28444;48.056;14.408;2022-08-19T10:19:19;14.48;;;12.10;;
38911;SDS011;28444;48.056;14.408;2022-08-19T10:24:18;13.93;;;11.05;;
38911;SDS011;28444;48.056;14.408;2022-08-19T10:26:46;15.57;;;12.52;;
38911;SDS011;28444;48.056;14.408;2022-08-19T10:29:24;20.13;;;14.77;;
38911;SDS011;28444;48.056;14.408;2022-08-19T10:32:01;27.05;;;16.05;;
38911;SDS011;28444;48.056;14.408;2022-08-19T10:34:37;21.00;;;15.70;;
38911;SDS011;28444;48.056;14.408;2022-08-19T10:37:13;21.33;;;16.58;;
38911;SDS011;28444;48.056;14.408;2022-08-19T10:39:41;26.92;;;15.90;;
38911;SDS011;28444;48.056;14.408;2022-08-19T10:42:09;22.85;;;15.20;;
38911;SDS011;28444;48.056;14.408;2022-08-19T10:44:39;22.83;;;16.30;;
38911;SDS011;28444;48.056;14.408;2022-08-19T10:47:06;15.70;;;13.02;;
38911;SDS011;28444;48.056;14.408;2022-08-19T10:49:50;18.55;;;14.48;;
38911;SDS011;28444;48.056;14.408;2022-08-19T10:52:37;19.45;;;14.63;;
38911;SDS011;28444;48.056;14.408;2022-08-19T10:55:15;17.63;;;13.55;;
38911;SDS011;28444;48.056;14.408;2022-08-19T10:58:01;21.27;;;14.10;;
38911;SDS011;28444;48.056;14.408;2022-08-19T11:00:28;19.13;;;15.45;;
38911;SDS011;28444;48.056;14.408;2022-08-19T11:02:57;18.75;;;14.48;;
38911;SDS011;28444;48.056;14.408;2022-08-19T11:05:24;15.52;;;13.50;;
38911;SDS011;28444;48.056;14.408;2022-08-19T11:07:51;19.80;;;14.05;;
38911;SDS011;28444;48.056;14.408;2022-08-19T11:10:18;17.40;;;13.13;;
38911;SDS011;28444;48.056;14.408;2022-08-19T11:12:47;19.85;;;14.50;;
38911;SDS011;28444;48.056;14.408;2022-08-19T11:15:14;20.52;;;15.77;;
38911;SDS011;28444;48.056;14.408;2022-08-19T11:17:42;22.20;;;15.38;;
38911;SDS011;28444;48.056;14.408;2022-08-19T11:20:13;23.08;;;15.30;;
38911;SDS011;28444;48.056;14.408;2022-08-19T11:22:41;20.02;;;15.88;;
38911;SDS011;28444;48.056;14.408;2022-08-19T11:25:08;17.70;;;14.77;;
38911;SDS011;28444;48.056;14.408;2022-08-19T11:27:37;18.65;;;13.95;;
38911;SDS011;28444;48.056;14.408;2022-08-19T11:30:06;22.83;;;14.65;;
38911;SDS011;28444;48.056;14.408;2022-08-19T11:32:38;17.67;;;12.65;;
38911;SDS011;28444;48.056;14.408;2022-08-19T11:35:12;17.85;;;13.48;;
38911;SDS011;28444;48.056;14.408;2022-08-19T11:37:39;17.20;;;12.45;;
38911;SDS011;28444;48.056;14.408;2022-08-19T11:40:07;17.10;;;14.38;;
38911;SDS011;28444;48.056;14.408;2022-08-19T11:42:34;21.55;;;12.80;;
38911;SDS011;28444;48.056;14.408;2022-08-19T11:45:19;16.95;;;13.45;;
38911;SDS011;28444;48.056;14.408;2022-08-19T11:47:46;19.55;;;14.00;;
38911;SDS011;28444;48.056;14.408;2022-08-19T11:50:14;17.42;;;12.32;;
38911;SDS011;28444;48.056;14.408;2022-08-19T11:52:41;18.60;;;13.98;;
38911;SDS011;28444;48.056;14.408;2022-08-19T11:55:10;16.25;;;12.70;;
38911;SDS011;28444;48.056;14.408;2022-08-19T11:57:37;16.75;;;13.40;;
38911;SDS011;28444;48.056;14.408;2022-08-19T12:00:04;21.98;;;15.45;;
38911;SDS011;28444;48.056;14.408;2022-08-19T12:02:33;15.27;;;13.68;;
38911;SDS011;28444;48.056;14.408;2022-08-19T12:04:59;18.42;;;14.57;;
38911;SDS011;28444;48.056;14.408;2022-08-19T12:07:29;20.38;;;14.40;;
38911;SDS011;28444;48.056;14.408;2022-08-19T12:09:59;17.70;;;13.07;;
38911;SDS011;28444;48.056;14.408;2022-08-19T12:12:28;17.40;;;12.85;;
38911;SDS011;28444;48.056;14.408;2022-08-19T12:14:55;18.60;;;13.85;;
38911;SDS011;28444;48.056;14.408;2022-08-19T12:17:27;17.92;;;14.02;;
38911;SDS011;28444;48.056;14.408;2022-08-19T12:19:54;17.63;;;12.18;;
38911;SDS011;28444;48.056;14.408;2022-08-19T12:22:21;18.33;;;14.05;;
38911;SDS011;28444;48.056;14.408;2022-08-19T12:24:49;17.27;;;12.75;;
38911;SDS011;28444;48.056;14.408;2022-08-19T12:27:20;20.65;;;12.45;;
38911;SDS011;28444;48.056;14.408;2022-08-19T12:30:12;14.75;;;11.50;;
38911;SDS011;28444;48.056;14.408;2022-08-19T12:32:39;14.25;;;10.88;;
38911;SDS011;28444;48.056;14.408;2022-08-19T12:35:07;16.77;;;12.35;;
38911;SDS011;28444;48.056;14.408;2022-08-19T12:37:35;14.40;;;10.82;;
38911;SDS011;28444;48.056;14.408;2022-08-19T12:40:02;16.92;;;11.85;;
38911;SDS011;28444;48.056;14.408;2022-08-19T12:42:31;14.73;;;9.80;;
38911;SDS011;28444;48.056;14.408;2022-08-19T12:44:58;15.60;;;9.70;;
38911;SDS011;28444;48.056;14.408;2022-08-19T12:47:25;15.00;;;9.70;;
38911;SDS011;28444;48.056;14.408;2022-08-19T12:49:52;14.02;;;9.77;;
38911;SDS011;28444;48.056;14.408;2022-08-19T12:52:24;12.20;;;10.43;;
38911;SDS011;28444;48.056;14.408;2022-08-19T12:54:53;16.77;;;11.43;;
38911;SDS011;28444;48.056;14.408;2022-08-19T12:57:21;15.30;;;10.38;;
38911;SDS011;28444;48.056;14.408;2022-08-19T12:59:59;14.05;;;10.82;;
38911;SDS011;28444;48.056;14.408;2022-08-19T13:02:30;11.02;;;9.80;;
38911;SDS011;28444;48.056;14.408;2022-08-19T13:05:04;17.35;;;11.18;;
38911;SDS011;28444;48.056;14.408;2022-08-19T13:07:34;12.90;;;9.85;;
38911;SDS011;28444;48.056;14.408;2022-08-19T13:10:01;12.43;;;9.50;;
38911;SDS011;28444;48.056;14.408;2022-08-19T13:12:28;13.18;;;8.70;;
38911;SDS011;28444;48.056;14.408;2022-08-19T13:14:55;11.40;;;10.02;;
38911;SDS011;28444;48.056;14.408;2022-08-19T13:17:23;10.48;;;9.43;;
38911;SDS011;28444;48.056;14.408;2022-08-19T13:19:50;14.07;;;10.55;;
38911;SDS011;28444;48.056;14.408;2022-08-19T13:22:17;12.43;;;10.18;;
38911;SDS011;28444;48.056;14.408;2022-08-19T13:24:44;12.57;;;10.93;;
38911;SDS011;28444;48.056;14.408;2022-08-19T13:27:12;13.43;;;9.85;;
38911;SDS011;28444;48.056;14.408;2022-08-19T13:29:40;14.73;;;10.82;;
38911;SDS011;28444;48.056;14.408;2022-08-19T13:32:26;17.52;;;10.77;;
38911;SDS011;28444;48.056;14.408;2022-08-19T13:35:14;11.52;;;9.45;;
38911;SDS011;28444;48.056;14.408;2022-08-19T13:37:42;14.90;;;10.05;;
38911;SDS011;28444;48.056;14.408;2022-08-19T13:40:13;18.45;;;9.80;;
38911;SDS011;28444;48.056;14.408;2022-08-19T13:42:45;13.07;;;10.13;;
38911;SDS011;28444;48.056;14.408;2022-08-19T13:45:14;13.48;;;10.43;;
38911;SDS011;28444;48.056;14.408;2022-08-19T13:47:45;17.13;;;10.32;;
38911;SDS011;28444;48.056;14.408;2022-08-19T13:50:14;14.55;;;10.57;;
38911;SDS011;28444;48.056;14.408;2022-08-19T13:52:46;14.32;;;11.27;;
38911;SDS011;28444;48.056;14.408;2022-08-19T13:55:14;13.45;;;10.48;;
38911;SDS011;28444;48.056;14.408;2022-08-19T13:57:50;13.40;;;9.80;;
38911;SDS011;28444;48.056;14.408;2022-08-19T14:00:19;15.50;;;9.70;;
38911;SDS011;28444;48.056;14.408;2022-08-19T14:02:49;11.43;;;10.02;;
38911;SDS011;28444;48.056;14.408;2022-08-19T14:05:18;14.43;;;10.70;;
38911;SDS011;28444;48.056;14.408;2022-08-19T14:07:45;15.45;;;10.63;;
38911;SDS011;28444;48.056;14.408;2022-08-19T14:10:12;13.80;;;10.45;;
38911;SDS011;28444;48.056;14.408;2022-08-19T14:12:39;15.05;;;10.15;;
38911;SDS011;28444;48.056;14.408;2022-08-19T14:15:07;14.02;;;10.60;;
38911;SDS011;28444;48.056;14.408;2022-08-19T14:17:39;15.68;;;10.98;;
38911;SDS011;28444;48.056;14.408;2022-08-19T14:20:08;12.90;;;10.02;;
38911;SDS011;28444;48.056;14.408;2022-08-19T14:22:44;16.55;;;10.25;;
38911;SDS011;28444;48.056;14.408;2022-08-19T14:25:14;13.50;;;10.15;;
38911;SDS011;28444;48.056;14.408;2022-08-19T14:27:49;13.50;;;9.95;;
38911;SDS011;28444;48.056;14.408;2022-08-19T14:30:20;14.60;;;11.38;;
38911;SDS011;28444;48.056;14.408;2022-08-19T14:32:51;14.93;;;11.65;;
38911;SDS011;28444;48.056;14.408;2022-08-19T14:35:21;19.23;;;10.85;;
38911;SDS011;28444;48.056;14.408;2022-08-19T14:37:49;18.02;;;11.25;;
38911;SDS011;28444;48.056;14.408;2022-08-19T14:40:17;18.98;;;12.82;;
38911;SDS011;28444;48.056;14.408;2022-08-19T14:42:47;18.00;;;12.65;;
38911;SDS011;28444;48.056;14.408;2022-08-19T14:45:14;18.38;;;11.98;;
38911;SDS011;28444;48.056;14.408;2022-08-19T14:47:41;21.80;;;11.85;;
38911;SDS011;28444;48.056;14.408;2022-08-19T14:50:11;25.65;;;11.73;;